createdAt,value
2018-09-05T00:00:19.391Z,20.20
2018-09-05T00:02:48.796Z,20.20
2018-09-05T00:05:18.411Z,20.10
2018-09-05T00:07:47.549Z,20.10
2018-09-05T00:10:17.429Z,20.10
2018-09-05T00:12:47.005Z,20.00
2018-09-05T00:15:16.441Z,19.90
2018-09-05T00:17:46.165Z,19.80
2018-09-05T00:20:15.584Z,19.90
2018-09-05T00:22:44.980Z,19.80
2018-09-05T00:25:14.264Z,19.80
2018-09-05T00:27:43.796Z,19.70
2018-09-05T00:30:13.725Z,19.70
2018-09-05T00:32:43.331Z,19.50
2018-09-05T00:35:12.833Z,19.50
2018-09-05T00:37:42.320Z,19.50
2018-09-05T00:40:11.547Z,19.40
2018-09-05T00:42:40.852Z,19.50
2018-09-05T00:45:10.302Z,19.40
2018-09-05T00:47:39.618Z,19.40
2018-09-05T00:50:09.115Z,19.40
2018-09-05T00:52:38.447Z,19.30
2018-09-05T00:55:07.832Z,19.30
2018-09-05T00:57:37.282Z,19.20
2018-09-05T01:00:06.511Z,19.10
2018-09-05T01:02:36.294Z,19.10
2018-09-05T01:05:05.731Z,19.10
2018-09-05T01:07:35.554Z,19.10
2018-09-05T01:10:05.022Z,19.00
2018-09-05T01:12:34.281Z,19.00
2018-09-05T01:15:04.164Z,18.90
2018-09-05T01:17:34.309Z,18.90
2018-09-05T01:20:04.026Z,18.90
2018-09-05T01:22:33.385Z,18.80
2018-09-05T01:25:03.113Z,18.80
2018-09-05T01:27:32.536Z,18.70
2018-09-05T01:30:01.762Z,18.60
2018-09-05T01:32:31.254Z,18.60
2018-09-05T01:35:00.906Z,18.50
2018-09-05T01:37:30.523Z,18.40
2018-09-05T01:40:00.068Z,18.40
2018-09-05T01:42:29.790Z,18.30
2018-09-05T01:44:59.056Z,18.30
2018-09-05T01:47:28.692Z,18.20
2018-09-05T01:49:58.190Z,18.20
2018-09-05T01:52:27.594Z,18.20
2018-09-05T01:54:56.886Z,18.10
2018-09-05T01:57:26.233Z,18.10
2018-09-05T01:59:56.383Z,18.10
2018-09-05T02:02:26.190Z,18.10
2018-09-05T02:04:56.106Z,18.10
2018-09-05T02:07:25.482Z,18.10
2018-09-05T02:09:55.373Z,18.00
2018-09-05T02:12:24.792Z,18.00
2018-09-05T02:14:54.630Z,18.00
2018-09-05T02:17:24.104Z,18.00
2018-09-05T02:19:53.666Z,17.90
2018-09-05T02:22:23.121Z,17.80
2018-09-05T02:24:52.806Z,17.80
2018-09-05T02:27:22.268Z,17.80
2018-09-05T02:29:51.884Z,17.90
2018-09-05T02:32:21.352Z,17.80
2018-09-05T02:34:50.624Z,17.80
2018-09-05T02:37:19.835Z,17.80
2018-09-05T02:39:49.068Z,17.80
2018-09-05T02:42:19.044Z,17.80
2018-09-05T02:44:48.946Z,17.70
2018-09-05T02:47:18.851Z,17.70
2018-09-05T02:49:48.358Z,17.60
2018-09-05T02:52:17.809Z,17.60
2018-09-05T02:54:47.003Z,17.50
2018-09-05T02:57:16.976Z,17.50
2018-09-05T02:59:46.638Z,17.40
2018-09-05T03:02:16.324Z,17.40
2018-09-05T03:04:45.875Z,17.30
2018-09-05T03:07:15.982Z,17.30
2018-09-05T03:09:45.533Z,17.40
2018-09-05T03:12:19.439Z,17.40
2018-09-05T03:14:49.748Z,17.30
2018-09-05T03:17:19.396Z,17.30
2018-09-05T03:19:48.750Z,17.30
2018-09-05T03:22:18.476Z,17.30
2018-09-05T03:24:48.172Z,17.30
2018-09-05T03:27:17.692Z,17.30
2018-09-05T03:29:47.220Z,17.20
2018-09-05T03:32:16.414Z,17.10
2018-09-05T03:34:45.959Z,17.10
2018-09-05T03:37:15.324Z,17.00
2018-09-05T03:39:44.922Z,17.00
2018-09-05T03:42:14.626Z,17.00
2018-09-05T03:44:44.233Z,17.10
2018-09-05T03:47:13.964Z,17.10
2018-09-05T03:49:43.450Z,17.10
2018-09-05T03:52:13.389Z,17.00
2018-09-05T03:54:42.989Z,17.00
2018-09-05T04:40:07.516Z,16.20
2018-09-05T04:42:36.898Z,16.20
2018-09-05T04:45:06.622Z,16.10
2018-09-05T04:47:36.949Z,16.00
2018-09-05T04:50:07.143Z,16.00
2018-09-05T04:52:38.146Z,16.00
2018-09-05T04:55:08.198Z,16.00
2018-09-05T04:57:39.692Z,16.10
2018-09-05T05:00:10.109Z,16.10
2018-09-05T05:02:40.928Z,16.10
2018-09-05T05:05:11.559Z,16.10
2018-09-05T05:07:42.307Z,16.10
2018-09-05T05:10:13.077Z,16.10
2018-09-05T05:12:43.594Z,16.10
2018-09-05T05:15:13.847Z,16.00
2018-09-05T05:17:44.395Z,16.10
2018-09-05T05:20:14.784Z,16.10
2018-09-05T05:22:46.484Z,16.10
2018-09-05T05:25:17.759Z,16.10
2018-09-05T05:27:49.279Z,16.10
2018-09-05T05:30:20.061Z,16.10
2018-09-05T05:32:51.386Z,16.10
2018-09-05T05:35:22.093Z,16.10
2018-09-05T05:37:52.143Z,16.10
2018-09-05T05:40:23.256Z,16.10
2018-09-05T05:42:53.324Z,16.10
2018-09-05T05:45:23.797Z,16.10
2018-09-05T05:47:54.881Z,16.20
2018-09-05T05:50:25.650Z,16.10
2018-09-05T05:52:59.769Z,16.00
2018-09-05T05:55:30.729Z,16.00
2018-09-05T05:58:01.507Z,16.00
2018-09-05T06:00:32.391Z,16.00
2018-09-05T06:03:03.126Z,16.00
2018-09-05T06:05:34.243Z,16.00
2018-09-05T06:08:04.787Z,16.00
2018-09-05T06:10:36.288Z,16.00
2018-09-05T06:13:06.784Z,16.00
2018-09-05T06:15:37.274Z,16.00
2018-09-05T06:18:09.580Z,16.00
2018-09-05T06:20:40.871Z,16.10
2018-09-05T06:23:11.374Z,15.90
2018-09-05T06:25:41.723Z,16.00
2018-09-05T06:28:14.448Z,16.00
2018-09-05T06:30:45.407Z,16.10
2018-09-05T06:33:16.581Z,16.10
2018-09-05T06:35:47.452Z,16.10
2018-09-05T06:38:18.186Z,16.00
2018-09-05T06:40:48.353Z,16.00
2018-09-05T06:43:20.408Z,15.90
2018-09-05T06:45:51.017Z,15.80
2018-09-05T06:48:25.469Z,15.90
2018-09-05T06:51:01.628Z,15.90
2018-09-05T06:53:33.034Z,15.80
2018-09-05T06:56:05.000Z,15.80
2018-09-05T06:58:35.794Z,15.90
2018-09-05T07:01:06.303Z,15.80
2018-09-05T07:03:37.254Z,15.80
2018-09-05T07:06:08.738Z,15.90
2018-09-05T07:08:39.791Z,15.90
2018-09-05T07:11:10.749Z,15.90
2018-09-05T07:13:41.405Z,16.00
2018-09-05T07:16:12.132Z,16.00
2018-09-05T07:18:43.352Z,16.00
2018-09-05T07:21:14.414Z,16.10
2018-09-05T07:23:44.834Z,16.10
2018-09-05T07:26:15.816Z,16.10
2018-09-05T07:28:46.093Z,16.10
2018-09-05T07:31:16.953Z,16.10
2018-09-05T07:33:47.738Z,16.10
2018-09-05T07:36:18.879Z,16.10
2018-09-05T07:38:49.843Z,16.20
2018-09-05T07:41:20.553Z,16.10
2018-09-05T07:43:50.998Z,16.20
2018-09-05T07:46:21.731Z,16.30
2018-09-05T07:48:52.087Z,16.30
2018-09-05T07:51:22.498Z,16.30
2018-09-05T07:53:53.309Z,16.30
2018-09-05T07:56:24.487Z,16.30
2018-09-05T07:58:54.553Z,16.30
2018-09-05T08:01:25.022Z,16.30
2018-09-05T08:03:56.299Z,16.40
2018-09-05T08:06:26.393Z,16.50
2018-09-05T08:08:57.109Z,16.50
2018-09-05T08:11:28.145Z,16.70
2018-09-05T08:14:02.147Z,16.70
2018-09-05T08:16:32.297Z,16.70
2018-09-05T08:19:03.299Z,16.70
2018-09-05T08:21:33.353Z,16.80
2018-09-05T08:24:04.112Z,16.80
2018-09-05T08:26:34.673Z,16.80
2018-09-05T08:29:05.605Z,16.70
2018-09-05T08:31:36.773Z,16.70
2018-09-05T08:34:07.293Z,16.70
2018-09-05T08:36:38.779Z,16.90
2018-09-05T08:39:12.957Z,16.90
2018-09-05T08:41:43.406Z,17.00
2018-09-05T08:44:13.936Z,16.90
2018-09-05T08:46:44.038Z,17.00
2018-09-05T08:49:14.921Z,17.00
2018-09-05T08:51:46.368Z,17.00
2018-09-05T08:54:17.337Z,17.10
2018-09-05T08:56:48.184Z,17.20
2018-09-05T08:59:18.185Z,17.30
2018-09-05T09:01:48.961Z,17.50
2018-09-05T09:04:19.786Z,17.70
2018-09-05T09:06:50.686Z,17.80
2018-09-05T09:09:20.934Z,17.90
2018-09-05T09:11:51.614Z,18.10
2018-09-05T09:14:22.232Z,18.20
2018-09-05T09:16:52.589Z,18.40
2018-09-05T09:19:23.212Z,18.50
2018-09-05T09:21:53.313Z,18.70
2018-09-05T09:24:24.535Z,18.80
2018-09-05T09:26:55.153Z,18.80
2018-09-05T09:29:25.178Z,19.10
2018-09-05T09:31:55.784Z,19.20
2018-09-05T09:34:26.129Z,19.40
2018-09-05T09:36:56.760Z,19.50
2018-09-05T09:39:27.299Z,19.60
2018-09-05T09:41:58.417Z,19.80
2018-09-05T09:44:28.644Z,19.90
2018-09-05T09:46:59.569Z,19.90
2018-09-05T09:49:29.714Z,20.10
2018-09-05T09:52:04.911Z,20.30
2018-09-05T09:54:34.756Z,20.40
2018-09-05T09:57:05.202Z,20.60
2018-09-05T09:59:35.816Z,20.80
2018-09-05T10:02:11.186Z,20.80
2018-09-05T10:04:47.091Z,20.90
2018-09-05T10:07:22.318Z,21.00
2018-09-05T10:10:00.036Z,21.20
2018-09-05T10:12:34.791Z,21.30
2018-09-05T10:15:09.907Z,21.50
2018-09-05T10:17:40.771Z,21.60
2018-09-05T10:20:10.907Z,21.80
2018-09-05T10:22:41.375Z,21.90
2018-09-05T10:25:12.035Z,21.90
2018-09-05T10:27:44.710Z,22.00
2018-09-05T10:30:15.475Z,22.20
2018-09-05T10:32:45.297Z,22.20
2018-09-05T10:35:16.064Z,22.30
2018-09-05T10:37:46.394Z,22.40
2018-09-05T10:40:17.121Z,22.40
2018-09-05T10:42:47.293Z,22.50
2018-09-05T10:45:17.653Z,22.60
2018-09-05T10:47:47.735Z,22.60
2018-09-05T10:50:18.308Z,22.70
2018-09-05T10:52:49.365Z,22.80
2018-09-05T10:55:19.449Z,22.90
2018-09-05T10:57:49.817Z,23.00
2018-09-05T11:00:20.083Z,23.10
2018-09-05T11:02:49.970Z,23.00
2018-09-05T11:05:19.915Z,23.00
2018-09-05T11:07:49.853Z,23.10
2018-09-05T11:10:19.974Z,23.00
2018-09-05T11:12:49.953Z,23.20
2018-09-05T11:15:19.894Z,23.20
2018-09-05T11:17:50.229Z,23.40
2018-09-05T11:20:20.293Z,23.50
2018-09-05T11:22:50.687Z,23.60
2018-09-05T11:25:20.687Z,23.80
2018-09-05T11:27:51.262Z,24.00
2018-09-05T11:30:21.284Z,24.10
2018-09-05T11:32:51.382Z,24.00
2018-09-05T11:35:21.274Z,24.00
2018-09-05T11:37:52.084Z,23.90
2018-09-05T11:40:22.320Z,24.00
2018-09-05T11:42:52.443Z,24.10
2018-09-05T11:45:22.568Z,23.70
2018-09-05T11:47:53.254Z,23.90
2018-09-05T11:50:23.553Z,23.90
2018-09-05T11:52:53.471Z,24.10
2018-09-05T11:55:24.021Z,24.20
2018-09-05T11:57:54.261Z,24.40
2018-09-05T12:00:25.047Z,24.30
2018-09-05T12:02:54.833Z,24.20
2018-09-05T12:05:25.030Z,24.10
2018-09-05T12:07:54.523Z,24.30
2018-09-05T12:10:24.584Z,24.30
2018-09-05T12:12:54.546Z,24.20
2018-09-05T12:15:24.625Z,24.40
2018-09-05T12:17:54.600Z,24.40
2018-09-05T12:20:25.071Z,24.50
2018-09-05T12:22:55.004Z,24.60
2018-09-05T12:25:24.833Z,24.60
2018-09-05T12:27:54.884Z,24.70
2018-09-05T12:30:24.949Z,24.60
2018-09-05T12:32:54.760Z,24.60
2018-09-05T12:35:24.784Z,24.60
2018-09-05T12:37:54.792Z,24.60
2018-09-05T12:40:24.687Z,24.60
2018-09-05T12:42:54.510Z,24.60
2018-09-05T12:45:24.456Z,24.70
2018-09-05T12:47:54.860Z,24.60
2018-09-05T12:50:31.006Z,24.70
2018-09-05T12:53:00.751Z,24.60
2018-09-05T12:55:30.673Z,24.70
2018-09-05T12:58:00.716Z,24.80
2018-09-05T13:00:30.601Z,24.70
2018-09-05T13:03:00.699Z,24.80
2018-09-05T13:05:30.984Z,25.00
2018-09-05T13:08:01.229Z,25.00
2018-09-05T13:10:31.005Z,25.10
2018-09-05T13:13:00.647Z,25.10
2018-09-05T13:15:30.819Z,25.10
2018-09-05T13:18:00.546Z,25.20
2018-09-05T13:20:30.953Z,25.30
2018-09-05T13:23:00.927Z,25.30
2018-09-05T13:25:30.626Z,25.40
2018-09-05T13:28:00.157Z,25.40
2018-09-05T13:30:30.289Z,25.40
2018-09-05T13:33:00.215Z,25.40
2018-09-05T13:35:29.712Z,25.40
2018-09-05T13:37:59.624Z,25.30
2018-09-05T13:40:29.914Z,25.40
2018-09-05T13:43:00.750Z,25.60
2018-09-05T13:45:31.077Z,25.60
2018-09-05T13:48:00.993Z,25.60
2018-09-05T13:50:31.223Z,25.70
2018-09-05T13:53:01.417Z,25.80
2018-09-05T13:55:33.568Z,25.80
2018-09-05T13:58:04.818Z,26.00
2018-09-05T14:00:35.386Z,26.20
2018-09-05T14:03:06.103Z,26.20
2018-09-05T14:05:37.069Z,26.30
2018-09-05T14:08:07.480Z,26.20
2018-09-05T14:10:37.561Z,26.10
2018-09-05T14:13:08.078Z,26.20
2018-09-05T14:15:38.427Z,26.30
2018-09-05T14:18:09.010Z,26.30
2018-09-05T14:20:39.721Z,26.40
2018-09-05T14:23:10.120Z,26.30
2018-09-05T14:25:39.887Z,26.30
2018-09-05T14:28:10.010Z,26.30
2018-09-05T14:30:40.928Z,26.30
2018-09-05T14:33:10.998Z,26.30
2018-09-05T14:35:41.049Z,26.40
2018-09-05T14:38:11.119Z,26.40
2018-09-05T14:40:40.994Z,26.40
2018-09-05T14:43:10.963Z,26.50
2018-09-05T14:45:41.590Z,26.50
2018-09-05T14:48:11.737Z,26.50
2018-09-05T14:50:42.708Z,26.50
2018-09-05T14:53:13.463Z,26.40
2018-09-05T14:55:44.994Z,26.40
2018-09-05T14:58:16.617Z,26.40
2018-09-05T15:00:47.372Z,26.40
2018-09-05T15:03:19.238Z,26.50
2018-09-05T15:05:50.034Z,26.40
2018-09-05T15:08:21.294Z,26.40
2018-09-05T15:10:52.818Z,26.40
2018-09-05T15:13:23.554Z,26.40
2018-09-05T15:15:54.126Z,26.40
2018-09-05T15:18:24.189Z,26.50
2018-09-05T15:20:54.756Z,26.40
2018-09-05T15:23:27.104Z,26.50
2018-09-05T15:25:58.424Z,26.40
2018-09-05T15:28:29.480Z,26.50
2018-09-05T15:30:59.962Z,26.40
2018-09-05T15:33:30.182Z,26.30
2018-09-05T15:36:01.032Z,26.30
2018-09-05T15:38:31.200Z,26.30
2018-09-05T15:41:01.355Z,26.30
2018-09-05T15:43:31.848Z,26.30
2018-09-05T15:46:02.451Z,26.20
2018-09-05T15:48:32.930Z,26.20
2018-09-05T15:51:03.530Z,26.20
2018-09-05T15:53:33.846Z,26.10
2018-09-05T15:56:04.551Z,26.10
2018-09-05T15:58:35.108Z,26.10
2018-09-05T16:01:07.108Z,26.10
2018-09-05T16:03:38.521Z,26.20
2018-09-05T16:06:09.088Z,26.20
2018-09-05T16:08:42.694Z,26.10
2018-09-05T16:11:13.938Z,26.10
2018-09-05T16:13:44.936Z,26.10
2018-09-05T16:16:16.422Z,26.00
2018-09-05T16:18:46.528Z,26.00
2018-09-05T16:21:17.501Z,26.10
2018-09-05T16:23:48.685Z,25.90
2018-09-05T16:26:19.248Z,25.90
2018-09-05T16:28:50.779Z,25.80
2018-09-05T16:31:21.853Z,25.70
2018-09-05T16:33:52.620Z,25.70
2018-09-05T16:36:23.972Z,25.70
2018-09-05T16:38:54.947Z,25.70
2018-09-05T16:41:26.022Z,25.60
2018-09-05T16:43:56.764Z,25.60
2018-09-05T16:46:27.720Z,25.60
2018-09-05T16:48:59.104Z,25.60
2018-09-05T16:51:30.020Z,25.60
2018-09-05T16:54:02.111Z,25.60
2018-09-05T16:56:34.766Z,25.50
2018-09-05T16:59:06.683Z,25.40
2018-09-05T17:01:38.584Z,25.30
2018-09-05T17:04:09.410Z,25.30
2018-09-05T17:06:40.366Z,25.30
2018-09-05T17:09:12.638Z,25.20
2018-09-05T17:11:42.814Z,25.10
2018-09-05T17:14:13.328Z,25.10
2018-09-05T17:16:44.638Z,25.00
2018-09-05T17:19:17.656Z,24.90
2018-09-05T17:21:49.888Z,24.90
2018-09-05T17:24:20.967Z,24.90
2018-09-05T17:26:51.478Z,24.90
2018-09-05T17:29:21.963Z,24.90
2018-09-05T17:31:52.741Z,24.90
2018-09-05T17:34:24.822Z,24.80
2018-09-05T17:36:56.074Z,24.80
2018-09-05T17:39:26.797Z,24.80
2018-09-05T17:41:58.022Z,24.80
2018-09-05T17:44:29.360Z,24.80
2018-09-05T17:47:00.451Z,24.70
2018-09-05T17:49:31.254Z,24.70
2018-09-05T17:52:01.615Z,24.60
2018-09-05T17:54:32.640Z,24.60
2018-09-05T17:57:03.984Z,24.60
2018-09-05T17:59:33.892Z,24.50
2018-09-05T18:02:03.564Z,24.70
2018-09-05T18:04:33.469Z,24.70
2018-09-05T18:07:02.722Z,24.80
2018-09-05T18:09:31.741Z,24.80
2018-09-05T18:12:01.254Z,24.90
2018-09-05T18:14:30.327Z,24.90
2018-09-05T18:16:59.594Z,24.90
2018-09-05T18:19:29.766Z,24.90
2018-09-05T18:21:59.190Z,24.90
2018-09-05T18:24:28.584Z,24.90
2018-09-05T18:26:58.292Z,25.00
2018-09-05T18:29:27.945Z,24.90
2018-09-05T18:31:57.262Z,24.90
2018-09-05T18:34:26.762Z,24.80
2018-09-05T18:36:56.811Z,24.80
2018-09-05T18:39:26.859Z,24.70
2018-09-05T18:41:56.540Z,24.60
2018-09-05T18:44:26.571Z,24.60
2018-09-05T18:46:57.412Z,24.60
2018-09-05T18:49:27.582Z,24.50
2018-09-05T18:51:58.457Z,24.60
2018-09-05T18:54:28.460Z,24.50
2018-09-05T18:56:58.500Z,24.50
2018-09-05T18:59:28.450Z,24.30
2018-09-05T19:01:59.630Z,24.20
2018-09-05T19:04:30.181Z,24.20
2018-09-05T19:07:00.249Z,24.20
2018-09-05T19:09:30.063Z,24.00
2018-09-05T19:12:00.512Z,23.90
2018-09-05T19:14:30.992Z,23.90
2018-09-05T19:17:01.297Z,23.80
2018-09-05T19:19:31.419Z,23.70
2018-09-05T19:22:01.651Z,23.70
2018-09-05T19:24:31.688Z,23.80
2018-09-05T19:27:01.496Z,23.70
2018-09-05T19:29:31.794Z,23.70
2018-09-05T19:32:01.905Z,23.70
2018-09-05T19:34:32.037Z,23.60
2018-09-05T19:37:01.762Z,23.40
2018-09-05T19:39:31.424Z,23.40
2018-09-05T19:42:01.398Z,23.40
2018-09-05T19:44:31.855Z,23.30
2018-09-05T19:47:01.866Z,23.20
2018-09-05T19:49:31.909Z,23.10
2018-09-05T19:52:01.865Z,23.00
2018-09-05T19:54:32.026Z,22.90
2018-09-05T19:57:02.313Z,22.90
2018-09-05T19:59:32.510Z,22.80
2018-09-05T20:02:02.664Z,22.70
2018-09-05T20:04:32.968Z,22.60
2018-09-05T20:07:02.684Z,22.60
2018-09-05T20:09:33.240Z,22.50
2018-09-05T20:12:03.415Z,22.30
2018-09-05T20:14:33.621Z,22.30
2018-09-05T20:17:03.697Z,22.20
2018-09-05T20:19:33.340Z,22.10
2018-09-05T20:22:03.294Z,22.00
2018-09-05T20:24:33.285Z,22.00
2018-09-05T20:27:03.451Z,22.00
2018-09-05T20:29:33.973Z,22.10
2018-09-05T20:32:03.997Z,22.00
2018-09-05T20:34:33.975Z,22.00
2018-09-05T20:37:03.951Z,21.90
2018-09-05T20:39:33.783Z,21.80
2018-09-05T20:42:04.345Z,21.80
2018-09-05T20:44:34.385Z,21.70
2018-09-05T20:47:07.086Z,21.70
2018-09-05T20:49:38.735Z,21.60
2018-09-05T20:52:08.417Z,21.50
2018-09-05T20:54:38.434Z,21.50
2018-09-05T20:57:08.010Z,21.50
2018-09-05T20:59:37.627Z,21.50
2018-09-05T21:02:08.032Z,21.50
2018-09-05T21:04:37.873Z,21.40
2018-09-05T21:07:07.985Z,21.30
2018-09-05T21:09:38.249Z,21.20
2018-09-05T21:12:08.417Z,21.20
2018-09-05T21:14:38.018Z,21.20
2018-09-05T21:17:08.025Z,21.10
2018-09-05T21:19:38.529Z,21.10
2018-09-05T21:22:08.441Z,21.00
2018-09-05T21:24:38.363Z,20.90
2018-09-05T21:27:08.095Z,20.90
2018-09-05T21:29:38.043Z,20.80
2018-09-05T21:32:08.335Z,20.80
2018-09-05T21:34:38.436Z,20.80
2018-09-05T21:37:08.544Z,20.70
2018-09-05T21:39:38.534Z,20.70
2018-09-05T21:42:08.228Z,20.70
2018-09-05T21:44:38.738Z,20.70
2018-09-05T21:47:08.907Z,20.80
2018-09-05T21:49:38.848Z,20.70
2018-09-05T21:52:09.373Z,20.60
2018-09-05T21:54:39.243Z,20.50
2018-09-05T21:57:09.269Z,20.40
2018-09-05T21:59:39.357Z,20.40
2018-09-05T22:02:09.503Z,20.30
2018-09-05T22:04:39.844Z,20.30
2018-09-05T22:07:09.945Z,20.20
2018-09-05T22:09:39.601Z,20.30
2018-09-05T22:12:09.410Z,20.30
2018-09-05T22:14:38.930Z,20.20
2018-09-05T22:17:09.390Z,20.10
2018-09-05T22:19:39.332Z,20.20
2018-09-05T22:22:09.384Z,20.20
2018-09-05T22:24:39.312Z,20.20
2018-09-05T22:27:09.319Z,20.10
2018-09-05T22:29:39.449Z,20.10
2018-09-05T22:32:09.337Z,20.10
2018-09-05T22:34:39.141Z,20.10
2018-09-05T22:37:09.280Z,20.00
2018-09-05T22:39:39.446Z,20.10
2018-09-05T22:42:12.376Z,20.00
2018-09-05T22:44:54.414Z,20.00
2018-09-05T22:47:34.948Z,20.00
2018-09-05T22:52:25.219Z,20.00
2018-09-05T22:55:16.533Z,19.90
2018-09-05T22:58:03.127Z,19.90
2018-09-05T23:01:19.511Z,19.80
2018-09-05T23:04:04.357Z,19.80
2018-09-05T23:07:52.909Z,19.80
2018-09-05T23:10:33.365Z,19.70
2018-09-05T23:13:13.679Z,19.70
2018-09-05T23:15:53.969Z,19.80
2018-09-05T23:20:43.379Z,19.80
2018-09-05T23:23:24.131Z,19.70
2018-09-05T23:25:54.093Z,19.60
2018-09-05T23:28:23.888Z,19.50
2018-09-05T23:30:53.833Z,19.50
2018-09-05T23:33:23.976Z,19.40
2018-09-05T23:35:54.181Z,19.50
2018-09-05T23:38:24.053Z,19.40
2018-09-05T23:40:54.294Z,19.40
2018-09-05T23:43:24.324Z,19.30
2018-09-05T23:45:54.585Z,19.30
2018-09-05T23:48:24.521Z,19.30
2018-09-05T23:50:54.351Z,19.30
2018-09-05T23:53:23.900Z,19.30
2018-09-05T23:55:53.816Z,19.30
2018-09-05T23:58:24.001Z,19.20
